TNZ94 YMLT-YMML
Flight info
| Callsign | TNZ94 |
|---|---|
| Flight time | 0h 53m |
| Altitude | 30000 |
| Route | DCT ML H169 IRSOM W105 LT DCT |
| Aircraft | B738/M-V/N |
Departure
| Time | 2026-04-16 10:51 |
|---|---|
| Airport | Launceston Airport (YMLT) |
Arrival
| Time | 2026-04-16 11:45 |
|---|---|
| Airport | Melbourne Airport (YMML) |
| Time | Latitude | Longitude | Altitude | Speed | Heading |
|---|---|---|---|---|---|
| 2026-04-16 10:37 | -41.54214 | 147.20594 | 582 ft | 0 kts | 294° |
| 2026-04-16 10:48 | -41.54211 | 147.20593 | 582 ft | 1 kts | 318° |
| 2026-04-16 10:48 | -41.54203 | 147.20607 | 582 ft | 3 kts | 76° |
| 2026-04-16 10:48 | -41.54221 | 147.20652 | 582 ft | 10 kts | 123° |
| 2026-04-16 10:48 | -41.54289 | 147.20723 | 583 ft | 17 kts | 149° |
| 2026-04-16 10:49 | -41.54417 | 147.20831 | 583 ft | 25 kts | 147° |
| 2026-04-16 10:49 | -41.54557 | 147.20952 | 589 ft | 23 kts | 147° |
| 2026-04-16 10:49 | -41.54691 | 147.21067 | 587 ft | 23 kts | 148° |
| 2026-04-16 10:49 | -41.54822 | 147.21177 | 583 ft | 22 kts | 148° |
| 2026-04-16 10:50 | -41.54948 | 147.21285 | 583 ft | 21 kts | 147° |
| 2026-04-16 10:50 | -41.55070 | 147.21392 | 582 ft | 21 kts | 147° |
| 2026-04-16 10:50 | -41.55188 | 147.21495 | 586 ft | 20 kts | 144° |
| 2026-04-16 10:50 | -41.55205 | 147.21654 | 589 ft | 19 kts | 43° |
| 2026-04-16 10:51 | -41.55078 | 147.21590 | 591 ft | 33 kts | 327° |
| 2026-04-16 10:51 | -41.54642 | 147.21215 | 592 ft | 113 kts | 326° |
| 2026-04-16 10:51 | -41.53805 | 147.20504 | 807 ft | 160 kts | 328° |
| 2026-04-16 10:51 | -41.52824 | 147.19692 | 1784 ft | 164 kts | 327° |
| 2026-04-16 10:52 | -41.51853 | 147.19023 | 2944 ft | 157 kts | 327° |
| 2026-04-16 10:52 | -41.50833 | 147.18354 | 3611 ft | 174 kts | 327° |
| 2026-04-16 10:52 | -41.49649 | 147.17569 | 3869 ft | 204 kts | 327° |
| 2026-04-16 10:52 | -41.48305 | 147.16666 | 4142 ft | 227 kts | 329° |
| 2026-04-16 10:53 | -41.46760 | 147.15777 | 4473 ft | 253 kts | 330° |
| 2026-04-16 10:53 | -41.45099 | 147.14909 | 5349 ft | 257 kts | 330° |
| 2026-04-16 10:53 | -41.43411 | 147.14038 | 6175 ft | 268 kts | 330° |
| 2026-04-16 10:53 | -41.41580 | 147.13078 | 6427 ft | 297 kts | 330° |
| 2026-04-16 10:54 | -41.39582 | 147.12018 | 6814 ft | 317 kts | 331° |
| 2026-04-16 10:54 | -41.37512 | 147.10936 | 7635 ft | 322 kts | 331° |
| 2026-04-16 10:54 | -41.35439 | 147.09849 | 8467 ft | 325 kts | 331° |
| 2026-04-16 10:54 | -41.33333 | 147.08747 | 9443 ft | 325 kts | 330° |
| 2026-04-16 10:55 | -41.31220 | 147.07633 | 10293 ft | 328 kts | 330° |
| 2026-04-16 10:55 | -41.29089 | 147.06504 | 11094 ft | 331 kts | 330° |
| 2026-04-16 10:55 | -41.26942 | 147.05368 | 11890 ft | 334 kts | 330° |
| 2026-04-16 10:55 | -41.24767 | 147.04213 | 12695 ft | 337 kts | 330° |
| 2026-04-16 10:56 | -41.22574 | 147.03044 | 13477 ft | 341 kts | 330° |
| 2026-04-16 10:56 | -41.20362 | 147.01870 | 14213 ft | 343 kts | 330° |
| 2026-04-16 10:56 | -41.18139 | 147.00697 | 14977 ft | 344 kts | 330° |
| 2026-04-16 10:56 | -41.15906 | 146.99521 | 15702 ft | 346 kts | 330° |
| 2026-04-16 10:57 | -41.13662 | 146.98335 | 16409 ft | 348 kts | 329° |
| 2026-04-16 10:57 | -41.11439 | 146.97162 | 17153 ft | 348 kts | 329° |
| 2026-04-16 10:57 | -41.09182 | 146.95967 | 17896 ft | 350 kts | 329° |
| 2026-04-16 10:57 | -41.06914 | 146.94765 | 18517 ft | 353 kts | 329° |
| 2026-04-16 10:58 | -41.04623 | 146.93558 | 19091 ft | 355 kts | 329° |
| 2026-04-16 10:58 | -41.02314 | 146.92342 | 19655 ft | 358 kts | 329° |
| 2026-04-16 10:58 | -40.99988 | 146.91117 | 20218 ft | 361 kts | 329° |
| 2026-04-16 10:58 | -40.97651 | 146.89887 | 20779 ft | 363 kts | 328° |
| 2026-04-16 10:59 | -40.95297 | 146.88650 | 21334 ft | 365 kts | 328° |
| 2026-04-16 10:59 | -40.92924 | 146.87403 | 21875 ft | 368 kts | 328° |
| 2026-04-16 10:59 | -40.90540 | 146.86151 | 22395 ft | 370 kts | 329° |
| 2026-04-16 10:59 | -40.88139 | 146.84891 | 22844 ft | 374 kts | 329° |
| 2026-04-16 11:00 | -40.85709 | 146.83615 | 23289 ft | 378 kts | 329° |
| 2026-04-16 11:00 | -40.83263 | 146.82340 | 23739 ft | 379 kts | 329° |
| 2026-04-16 11:00 | -40.80802 | 146.81052 | 24181 ft | 381 kts | 329° |
| 2026-04-16 11:00 | -40.78334 | 146.79761 | 24600 ft | 382 kts | 329° |
| 2026-04-16 11:01 | -40.75889 | 146.78482 | 24992 ft | 384 kts | 328° |
| 2026-04-16 11:01 | -40.73396 | 146.77178 | 25387 ft | 386 kts | 328° |
| 2026-04-16 11:01 | -40.70887 | 146.75868 | 25766 ft | 388 kts | 328° |
| 2026-04-16 11:01 | -40.68367 | 146.74554 | 26152 ft | 390 kts | 328° |
| 2026-04-16 11:02 | -40.65841 | 146.73239 | 26556 ft | 390 kts | 329° |
| 2026-04-16 11:02 | -40.63315 | 146.71930 | 27047 ft | 389 kts | 328° |
| 2026-04-16 11:02 | -40.60807 | 146.70629 | 27583 ft | 387 kts | 328° |
| 2026-04-16 11:02 | -40.58310 | 146.69333 | 28113 ft | 385 kts | 328° |
| 2026-04-16 11:03 | -40.55823 | 146.68043 | 28637 ft | 383 kts | 328° |
| 2026-04-16 11:03 | -40.53355 | 146.66762 | 29169 ft | 381 kts | 327° |
| 2026-04-16 11:03 | -40.48425 | 146.64202 | 29850 ft | 383 kts | 327° |
| 2026-04-16 11:04 | -40.45948 | 146.62916 | 29863 ft | 381 kts | 327° |
| 2026-04-16 11:04 | -40.41061 | 146.60391 | 29857 ft | 379 kts | 328° |
| 2026-04-16 11:05 | -40.36141 | 146.57847 | 29871 ft | 381 kts | 328° |
| 2026-04-16 11:05 | -40.31187 | 146.55291 | 29875 ft | 383 kts | 328° |
| 2026-04-16 11:06 | -40.26208 | 146.52728 | 29883 ft | 384 kts | 328° |
| 2026-04-16 11:06 | -40.21371 | 146.49890 | 29891 ft | 376 kts | 322° |
| 2026-04-16 11:07 | -40.16792 | 146.46595 | 29880 ft | 375 kts | 321° |
| 2026-04-16 11:07 | -40.12254 | 146.43324 | 29889 ft | 375 kts | 321° |
| 2026-04-16 11:08 | -40.07670 | 146.40052 | 29890 ft | 376 kts | 321° |
| 2026-04-16 11:08 | -40.03072 | 146.36789 | 29897 ft | 376 kts | 322° |
| 2026-04-16 11:09 | -39.98474 | 146.33538 | 29897 ft | 376 kts | 322° |
| 2026-04-16 11:09 | -39.93864 | 146.30287 | 29878 ft | 376 kts | 322° |
| 2026-04-16 11:10 | -39.89269 | 146.27050 | 29893 ft | 376 kts | 322° |
| 2026-04-16 11:10 | -39.84661 | 146.23809 | 29902 ft | 376 kts | 322° |
| 2026-04-16 11:11 | -39.80079 | 146.20590 | 29902 ft | 376 kts | 321° |
| 2026-04-16 11:11 | -39.75477 | 146.17362 | 29908 ft | 376 kts | 321° |
| 2026-04-16 11:12 | -39.70869 | 146.14135 | 29910 ft | 376 kts | 322° |
| 2026-04-16 11:12 | -39.66258 | 146.10916 | 29904 ft | 376 kts | 322° |
| 2026-04-16 11:13 | -39.61642 | 146.07692 | 29922 ft | 376 kts | 321° |
| 2026-04-16 11:13 | -39.57025 | 146.04473 | 29910 ft | 377 kts | 322° |
| 2026-04-16 11:14 | -39.52404 | 146.01257 | 29920 ft | 377 kts | 322° |
| 2026-04-16 11:14 | -39.47779 | 145.98043 | 29927 ft | 377 kts | 322° |
| 2026-04-16 11:15 | -39.43149 | 145.94832 | 29925 ft | 378 kts | 322° |
| 2026-04-16 11:15 | -39.38543 | 145.91641 | 29931 ft | 378 kts | 322° |
| 2026-04-16 11:16 | -39.33912 | 145.88438 | 29933 ft | 377 kts | 322° |
| 2026-04-16 11:16 | -39.29280 | 145.85238 | 29943 ft | 377 kts | 322° |
| 2026-04-16 11:17 | -39.24752 | 145.82132 | 29621 ft | 359 kts | 321° |
| 2026-04-16 11:17 | -39.22575 | 145.80641 | 29254 ft | 351 kts | 321° |
| 2026-04-16 11:17 | -39.20438 | 145.79173 | 28859 ft | 344 kts | 321° |
| 2026-04-16 11:17 | -39.18346 | 145.77734 | 28458 ft | 339 kts | 321° |
| 2026-04-16 11:18 | -39.16277 | 145.76310 | 28048 ft | 335 kts | 321° |
| 2026-04-16 11:18 | -39.14239 | 145.74907 | 27620 ft | 331 kts | 321° |
| 2026-04-16 11:18 | -39.12209 | 145.73510 | 27202 ft | 328 kts | 321° |
| 2026-04-16 11:18 | -39.10187 | 145.72116 | 26813 ft | 336 kts | 321° |
| 2026-04-16 11:19 | -39.08091 | 145.70657 | 26558 ft | 354 kts | 322° |
| 2026-04-16 11:19 | -39.05884 | 145.69128 | 26581 ft | 365 kts | 322° |
| 2026-04-16 11:19 | -39.03616 | 145.67566 | 26580 ft | 375 kts | 323° |
| 2026-04-16 11:19 | -39.01262 | 145.66001 | 26456 ft | 388 kts | 327° |
| 2026-04-16 11:20 | -38.98724 | 145.64747 | 26193 ft | 392 kts | 330° |
| 2026-04-16 11:20 | -38.96146 | 145.63604 | 25908 ft | 392 kts | 332° |
| 2026-04-16 11:20 | -38.93563 | 145.62499 | 25663 ft | 392 kts | 332° |
| 2026-04-16 11:20 | -38.90966 | 145.61400 | 25416 ft | 391 kts | 332° |
| 2026-04-16 11:21 | -38.88388 | 145.60308 | 25177 ft | 390 kts | 332° |
| 2026-04-16 11:21 | -38.85816 | 145.59212 | 24936 ft | 389 kts | 332° |
| 2026-04-16 11:21 | -38.83247 | 145.58116 | 24698 ft | 388 kts | 332° |
| 2026-04-16 11:21 | -38.80685 | 145.57018 | 24470 ft | 388 kts | 332° |
| 2026-04-16 11:22 | -38.78158 | 145.55932 | 24236 ft | 387 kts | 332° |
| 2026-04-16 11:22 | -38.75608 | 145.54838 | 24004 ft | 386 kts | 332° |
| 2026-04-16 11:22 | -38.73060 | 145.53743 | 23752 ft | 385 kts | 332° |
| 2026-04-16 11:22 | -38.70524 | 145.52654 | 23515 ft | 384 kts | 332° |
| 2026-04-16 11:23 | -38.67979 | 145.51566 | 23221 ft | 384 kts | 332° |
| 2026-04-16 11:23 | -38.65446 | 145.50480 | 22952 ft | 383 kts | 333° |
| 2026-04-16 11:23 | -38.62921 | 145.49402 | 22675 ft | 382 kts | 332° |
| 2026-04-16 11:23 | -38.60404 | 145.48321 | 22412 ft | 381 kts | 332° |
| 2026-04-16 11:24 | -38.57927 | 145.47257 | 22152 ft | 379 kts | 333° |
| 2026-04-16 11:24 | -38.55430 | 145.46194 | 21891 ft | 378 kts | 333° |
| 2026-04-16 11:24 | -38.52934 | 145.45129 | 21626 ft | 377 kts | 332° |
| 2026-04-16 11:24 | -38.50454 | 145.44068 | 21346 ft | 376 kts | 333° |
| 2026-04-16 11:25 | -38.47985 | 145.43020 | 21092 ft | 374 kts | 333° |
| 2026-04-16 11:25 | -38.45515 | 145.41968 | 20839 ft | 373 kts | 333° |
| 2026-04-16 11:25 | -38.43060 | 145.40918 | 20586 ft | 371 kts | 333° |
| 2026-04-16 11:25 | -38.40613 | 145.39876 | 20340 ft | 370 kts | 333° |
| 2026-04-16 11:26 | -38.38166 | 145.38842 | 20093 ft | 369 kts | 333° |
| 2026-04-16 11:26 | -38.35733 | 145.37811 | 19843 ft | 368 kts | 333° |
| 2026-04-16 11:26 | -38.33309 | 145.36775 | 19607 ft | 367 kts | 333° |
| 2026-04-16 11:26 | -38.30889 | 145.35743 | 19364 ft | 366 kts | 333° |
| 2026-04-16 11:27 | -38.28471 | 145.34717 | 19104 ft | 366 kts | 333° |
| 2026-04-16 11:27 | -38.26055 | 145.33694 | 18866 ft | 365 kts | 333° |
| 2026-04-16 11:27 | -38.23646 | 145.32677 | 18523 ft | 364 kts | 333° |
| 2026-04-16 11:27 | -38.21250 | 145.31663 | 18093 ft | 362 kts | 333° |
| 2026-04-16 11:28 | -38.18874 | 145.30661 | 17625 ft | 359 kts | 333° |
| 2026-04-16 11:28 | -38.16515 | 145.29666 | 17180 ft | 356 kts | 334° |
| 2026-04-16 11:28 | -38.14174 | 145.28678 | 16748 ft | 353 kts | 333° |
| 2026-04-16 11:28 | -38.11845 | 145.27698 | 16314 ft | 351 kts | 333° |
| 2026-04-16 11:29 | -38.09532 | 145.26719 | 15892 ft | 350 kts | 334° |
| 2026-04-16 11:29 | -38.07228 | 145.25749 | 15444 ft | 349 kts | 334° |
| 2026-04-16 11:29 | -38.04925 | 145.24779 | 15041 ft | 348 kts | 334° |
| 2026-04-16 11:29 | -38.02627 | 145.23811 | 14633 ft | 348 kts | 334° |
| 2026-04-16 11:30 | -38.00336 | 145.22847 | 14225 ft | 346 kts | 334° |
| 2026-04-16 11:30 | -37.98827 | 145.22212 | 13954 ft | 345 kts | 334° |
| 2026-04-16 11:30 | -37.95814 | 145.20947 | 13348 ft | 342 kts | 334° |
| 2026-04-16 11:30 | -37.93568 | 145.20005 | 12914 ft | 339 kts | 334° |
| 2026-04-16 11:31 | -37.91341 | 145.19071 | 12492 ft | 336 kts | 334° |
| 2026-04-16 11:31 | -37.89872 | 145.18455 | 12215 ft | 334 kts | 334° |
| 2026-04-16 11:31 | -37.87675 | 145.17535 | 11806 ft | 330 kts | 334° |
| 2026-04-16 11:31 | -37.85499 | 145.16624 | 11398 ft | 328 kts | 334° |
| 2026-04-16 11:32 | -37.83334 | 145.15715 | 10990 ft | 327 kts | 334° |
| 2026-04-16 11:32 | -37.81192 | 145.14818 | 10591 ft | 322 kts | 334° |
| 2026-04-16 11:32 | -37.79105 | 145.13944 | 10519 ft | 306 kts | 334° |
| 2026-04-16 11:32 | -37.77149 | 145.13136 | 10487 ft | 286 kts | 334° |
| 2026-04-16 11:33 | -37.75313 | 145.12377 | 10392 ft | 270 kts | 333° |
| 2026-04-16 11:33 | -37.73568 | 145.11652 | 10284 ft | 261 kts | 333° |
| 2026-04-16 11:33 | -37.71863 | 145.10888 | 9958 ft | 261 kts | 328° |
| 2026-04-16 11:33 | -37.70205 | 145.09926 | 9570 ft | 260 kts | 326° |
| 2026-04-16 11:34 | -37.68586 | 145.08944 | 9244 ft | 257 kts | 326° |
| 2026-04-16 11:34 | -37.66979 | 145.07977 | 8959 ft | 255 kts | 326° |
| 2026-04-16 11:34 | -37.65382 | 145.07022 | 8670 ft | 253 kts | 327° |
| 2026-04-16 11:34 | -37.63797 | 145.06081 | 8391 ft | 251 kts | 327° |
| 2026-04-16 11:35 | -37.62224 | 145.05147 | 8123 ft | 249 kts | 327° |
| 2026-04-16 11:35 | -37.60681 | 145.04236 | 7837 ft | 248 kts | 327° |
| 2026-04-16 11:35 | -37.59121 | 145.03320 | 7578 ft | 246 kts | 327° |
| 2026-04-16 11:35 | -37.57568 | 145.02413 | 7313 ft | 245 kts | 328° |
| 2026-04-16 11:36 | -37.56027 | 145.01514 | 7059 ft | 243 kts | 327° |
| 2026-04-16 11:36 | -37.54507 | 145.00613 | 6794 ft | 241 kts | 327° |
| 2026-04-16 11:36 | -37.52990 | 144.99693 | 6548 ft | 239 kts | 327° |
| 2026-04-16 11:36 | -37.51493 | 144.98780 | 6302 ft | 238 kts | 327° |
| 2026-04-16 11:37 | -37.50020 | 144.97890 | 6195 ft | 233 kts | 327° |
| 2026-04-16 11:37 | -37.48556 | 144.97003 | 6043 ft | 235 kts | 327° |
| 2026-04-16 11:37 | -37.47087 | 144.96112 | 5934 ft | 233 kts | 327° |
| 2026-04-16 11:37 | -37.45719 | 144.95118 | 5812 ft | 225 kts | 311° |
| 2026-04-16 11:38 | -37.44879 | 144.93508 | 5740 ft | 214 kts | 288° |
| 2026-04-16 11:38 | -37.44597 | 144.91751 | 5653 ft | 204 kts | 271° |
| 2026-04-16 11:38 | -37.44746 | 144.89995 | 5418 ft | 199 kts | 262° |
| 2026-04-16 11:38 | -37.44993 | 144.88302 | 5169 ft | 193 kts | 261° |
| 2026-04-16 11:39 | -37.45233 | 144.86666 | 4929 ft | 187 kts | 262° |
| 2026-04-16 11:39 | -37.45464 | 144.85080 | 4702 ft | 181 kts | 261° |
| 2026-04-16 11:39 | -37.45683 | 144.83554 | 4499 ft | 174 kts | 262° |
| 2026-04-16 11:39 | -37.45897 | 144.82085 | 4262 ft | 167 kts | 259° |
| 2026-04-16 11:40 | -37.46546 | 144.80904 | 4072 ft | 175 kts | 214° |
| 2026-04-16 11:40 | -37.47803 | 144.80634 | 3896 ft | 193 kts | 187° |
| 2026-04-16 11:40 | -37.49132 | 144.80665 | 3625 ft | 185 kts | 186° |
| 2026-04-16 11:40 | -37.50371 | 144.80753 | 3395 ft | 177 kts | 183° |
| 2026-04-16 11:41 | -37.51589 | 144.80932 | 3154 ft | 170 kts | 180° |
| 2026-04-16 11:41 | -37.52727 | 144.81134 | 2933 ft | 166 kts | 178° |
| 2026-04-16 11:41 | -37.53872 | 144.81345 | 2726 ft | 167 kts | 180° |
| 2026-04-16 11:41 | -37.55024 | 144.81559 | 2564 ft | 162 kts | 179° |
| 2026-04-16 11:42 | -37.56097 | 144.81764 | 2327 ft | 154 kts | 179° |
| 2026-04-16 11:42 | -37.57162 | 144.81963 | 2093 ft | 153 kts | 178° |
| 2026-04-16 11:42 | -37.58204 | 144.82156 | 1906 ft | 151 kts | 176° |
| 2026-04-16 11:42 | -37.59248 | 144.82353 | 1686 ft | 151 kts | 178° |
| 2026-04-16 11:43 | -37.60273 | 144.82544 | 1490 ft | 148 kts | 175° |
| 2026-04-16 11:43 | -37.61265 | 144.82729 | 1293 ft | 144 kts | 176° |
| 2026-04-16 11:43 | -37.62247 | 144.82915 | 1091 ft | 142 kts | 176° |
| 2026-04-16 11:43 | -37.63227 | 144.83082 | 903 ft | 144 kts | 177° |
| 2026-04-16 11:44 | -37.64240 | 144.83282 | 692 ft | 150 kts | 175° |
| 2026-04-16 11:44 | -37.65267 | 144.83482 | 506 ft | 149 kts | 175° |
| 2026-04-16 11:44 | -37.66261 | 144.83658 | 411 ft | 133 kts | 173° |
| 2026-04-16 11:44 | -37.67056 | 144.83821 | 383 ft | 98 kts | 169° |
| 2026-04-16 11:45 | -37.67638 | 144.83924 | 366 ft | 56 kts | 171° |
| 2026-04-16 11:45 | -37.67848 | 144.83987 | 358 ft | 23 kts | 131° |
| 2026-04-16 11:45 | -37.67871 | 144.84137 | 364 ft | 11 kts | 79° |
| 2026-04-16 11:45 | -37.67860 | 144.84231 | 359 ft | 11 kts | 81° |
| 2026-04-16 11:46 | -37.67849 | 144.84321 | 360 ft | 10 kts | 82° |
| 2026-04-16 11:46 | -37.67835 | 144.84408 | 362 ft | 10 kts | 78° |
| 2026-04-16 11:46 | -37.67821 | 144.84493 | 364 ft | 10 kts | 78° |
| 2026-04-16 11:46 | -37.67797 | 144.84571 | 367 ft | 9 kts | 46° |
| 2026-04-16 11:47 | -37.67752 | 144.84628 | 369 ft | 9 kts | 53° |
| 2026-04-16 11:47 | -37.67735 | 144.84703 | 370 ft | 9 kts | 84° |
| 2026-04-16 11:47 | -37.67732 | 144.84754 | 371 ft | 4 kts | 76° |
| 2026-04-16 11:47 | -37.67749 | 144.84776 | 370 ft | 5 kts | 175° |
| 2026-04-16 11:48 | -37.67790 | 144.84783 | 368 ft | 4 kts | 171° |
| 2026-04-16 11:48 | -37.67809 | 144.84786 | 370 ft | 1 kts | 172° |
| 2026-04-16 11:48 | -37.67810 | 144.84786 | 369 ft | 0 kts | 171° |